createdAt,value
2023-04-21T00:00:27.518Z,9.57
2023-04-21T00:02:54.766Z,10.02
2023-04-21T00:05:22.353Z,11.13
2023-04-21T00:07:49.843Z,9.27
2023-04-21T00:10:16.913Z,9.48
2023-04-21T00:12:44.040Z,10.32
2023-04-21T00:15:11.404Z,10.07
2023-04-21T00:17:39.273Z,10.05
2023-04-21T00:22:34.277Z,9.00
2023-04-21T00:25:04.653Z,8.77
2023-04-21T00:27:31.858Z,8.45
2023-04-21T00:29:58.952Z,9.55
2023-04-21T00:32:26.349Z,10.50
2023-04-21T00:34:53.471Z,9.75
2023-04-21T00:37:21.051Z,9.43
2023-04-21T00:39:48.118Z,9.13
2023-04-21T00:42:16.976Z,10.13
2023-04-21T00:44:44.209Z,8.50
2023-04-21T00:47:11.734Z,9.38
2023-04-21T00:49:48.594Z,10.13
2023-04-21T00:52:18.691Z,8.90
2023-04-21T00:54:49.855Z,9.40
2023-04-21T00:57:17.138Z,9.25
2023-04-21T00:59:44.412Z,10.93
2023-04-21T01:02:11.908Z,9.45
2023-04-21T01:04:40.275Z,10.40
2023-04-21T01:07:08.671Z,10.52
2023-04-21T01:09:35.950Z,11.48
2023-04-21T01:12:10.058Z,10.52
2023-04-21T01:14:39.133Z,9.70
2023-04-21T01:17:07.781Z,10.45
2023-04-21T01:19:40.633Z,10.85
2023-04-21T01:22:12.235Z,9.65
2023-04-21T01:24:44.967Z,10.60
2023-04-21T01:27:17.470Z,9.43
2023-04-21T01:29:49.091Z,10.05
2023-04-21T01:32:21.435Z,10.52
2023-04-21T01:34:49.549Z,10.30
2023-04-21T01:37:23.406Z,10.88
2023-04-21T01:39:57.118Z,10.02
2023-04-21T01:42:26.322Z,12.43
2023-04-21T01:44:54.590Z,10.52
2023-04-21T01:47:23.469Z,12.02
2023-04-21T01:49:51.347Z,10.93
2023-04-21T01:52:19.812Z,10.90
2023-04-21T01:57:15.417Z,12.60
2023-04-21T01:59:43.416Z,10.38
2023-04-21T02:02:11.586Z,11.88
2023-04-21T02:04:39.185Z,11.52
2023-04-21T02:07:07.080Z,10.63
2023-04-21T02:09:37.071Z,12.45
2023-04-21T02:12:04.435Z,12.05
2023-04-21T02:14:31.650Z,12.90
2023-04-21T02:16:58.999Z,12.23
2023-04-21T02:19:26.297Z,10.60
2023-04-21T02:21:55.812Z,10.15
2023-04-21T02:24:23.160Z,12.98
2023-04-21T02:26:50.426Z,11.30
2023-04-21T02:29:20.946Z,11.50
2023-04-21T02:32:00.829Z,12.68
2023-04-21T02:34:32.848Z,11.73
2023-04-21T02:37:00.819Z,12.70
2023-04-21T02:39:28.207Z,10.80
2023-04-21T02:41:55.632Z,10.43
2023-04-21T02:44:22.872Z,11.50
2023-04-21T02:46:50.142Z,11.15
2023-04-21T02:49:21.051Z,11.27
2023-04-21T02:51:48.599Z,11.30
2023-04-21T02:54:15.784Z,10.25
2023-04-21T02:56:42.921Z,10.05
2023-04-21T02:59:11.497Z,9.93
2023-04-21T03:01:40.184Z,11.70
2023-04-21T03:04:09.138Z,10.80
2023-04-21T03:06:38.629Z,10.45
2023-04-21T03:09:11.299Z,10.60
2023-04-21T03:11:38.447Z,10.85
2023-04-21T03:14:05.685Z,9.82
2023-04-21T03:16:34.619Z,11.45
2023-04-21T03:19:02.208Z,9.75
2023-04-21T03:23:56.753Z,9.35
2023-04-21T03:26:26.204Z,12.63
2023-04-21T03:29:02.138Z,11.13
2023-04-21T03:31:29.353Z,10.38
2023-04-21T03:33:57.514Z,10.32
2023-04-21T03:36:26.221Z,10.70
2023-04-21T03:41:26.180Z,9.32
2023-04-21T03:43:53.477Z,9.10
2023-04-21T03:46:21.986Z,9.30
2023-04-21T03:48:51.970Z,9.57
2023-04-21T03:51:19.586Z,10.32
2023-04-21T03:53:47.201Z,9.80
2023-04-21T03:56:17.144Z,7.97
2023-04-21T03:58:45.418Z,8.70
2023-04-21T04:01:15.946Z,10.27
2023-04-21T04:03:43.400Z,9.50
2023-04-21T04:06:10.840Z,9.38
2023-04-21T04:08:38.385Z,10.20
2023-04-21T04:11:08.408Z,9.07
2023-04-21T04:13:38.579Z,9.10
2023-04-21T04:16:15.034Z,9.75
2023-04-21T04:18:51.384Z,9.15
2023-04-21T04:21:21.914Z,9.35
2023-04-21T04:24:03.361Z,8.82
2023-04-21T04:26:38.577Z,10.25
2023-04-21T04:29:10.676Z,8.98
2023-04-21T04:31:38.204Z,10.32
2023-04-21T04:34:05.354Z,8.85
2023-04-21T04:36:33.513Z,8.05
2023-04-21T04:39:00.610Z,7.82
2023-04-21T04:41:30.584Z,8.68
2023-04-21T04:44:00.888Z,7.18
2023-04-21T04:46:28.451Z,6.78
2023-04-21T04:48:55.577Z,7.97
2023-04-21T04:51:23.731Z,8.10
2023-04-21T04:53:50.950Z,6.95
2023-04-21T04:56:18.083Z,8.48
2023-04-21T04:58:47.957Z,7.45
2023-04-21T05:01:17.922Z,7.00
2023-04-21T05:03:45.991Z,6.72
2023-04-21T05:06:14.263Z,8.23
2023-04-21T05:08:41.666Z,7.03
2023-04-21T05:11:09.128Z,7.05
2023-04-21T05:13:39.026Z,7.78
2023-04-21T05:16:07.734Z,6.50
2023-04-21T05:21:01.795Z,6.18
2023-04-21T05:23:28.952Z,6.60
2023-04-21T05:25:56.007Z,6.85
2023-04-21T05:28:23.269Z,7.10
2023-04-21T05:30:50.522Z,6.90
2023-04-21T05:33:20.626Z,6.35
2023-04-21T05:35:47.802Z,6.22
2023-04-21T05:38:15.270Z,6.78
2023-04-21T05:40:42.377Z,6.28
2023-04-21T05:43:09.494Z,6.32
2023-04-21T05:45:39.980Z,6.15
2023-04-21T05:48:07.209Z,6.60
2023-04-21T05:50:35.524Z,5.03
2023-04-21T05:53:02.621Z,5.75
2023-04-21T05:55:29.769Z,5.57
2023-04-21T05:57:56.969Z,6.05
2023-04-21T06:00:24.173Z,6.15
2023-04-21T06:02:51.477Z,6.45
2023-04-21T06:05:18.890Z,6.97
2023-04-21T06:07:46.035Z,7.60
2023-04-21T06:10:14.258Z,6.32
2023-04-21T06:12:41.353Z,6.22
2023-04-21T06:15:08.996Z,6.75
2023-04-21T06:17:36.158Z,7.82
2023-04-21T06:20:04.210Z,7.72
2023-04-21T06:22:31.695Z,7.57
2023-04-21T06:24:59.520Z,7.93
2023-04-21T06:27:27.738Z,8.18
2023-04-21T06:29:56.178Z,6.93
2023-04-21T06:32:23.330Z,6.82
2023-04-21T06:34:50.630Z,6.00
2023-04-21T06:37:18.146Z,7.70
2023-04-21T06:39:45.346Z,8.85
2023-04-21T06:42:12.493Z,7.63
2023-04-21T06:44:43.056Z,7.90
2023-04-21T06:47:10.279Z,9.10
2023-04-21T06:49:37.490Z,7.55
2023-04-21T06:52:04.925Z,8.88
2023-04-21T06:54:32.030Z,7.68
2023-04-21T06:56:59.186Z,7.85
2023-04-21T06:59:26.482Z,8.35
2023-04-21T07:01:53.708Z,8.05
2023-04-21T07:04:21.160Z,6.78
2023-04-21T07:06:49.227Z,6.95
2023-04-21T07:09:16.306Z,7.25
2023-04-21T07:11:43.413Z,7.95
2023-04-21T07:14:11.044Z,8.50
2023-04-21T07:16:38.193Z,7.20
2023-04-21T07:19:05.609Z,7.45
2023-04-21T07:21:36.168Z,6.70
2023-04-21T07:24:03.657Z,6.55
2023-04-21T07:26:30.979Z,7.47
2023-04-21T07:29:00.906Z,6.32
2023-04-21T07:31:28.062Z,6.85
2023-04-21T07:33:55.154Z,6.40
2023-04-21T07:36:22.305Z,6.68
2023-04-21T07:38:49.341Z,7.50
2023-04-21T07:41:16.413Z,7.20
2023-04-21T07:43:43.481Z,6.80
2023-04-21T07:46:13.274Z,6.28
2023-04-21T07:48:41.008Z,7.28
2023-04-21T07:51:08.188Z,6.32
2023-04-21T07:53:35.458Z,6.72
2023-04-21T07:56:02.787Z,5.28
2023-04-21T07:58:30.085Z,5.20
2023-04-21T08:00:57.529Z,5.30
2023-04-21T08:03:25.260Z,5.93
2023-04-21T08:08:21.616Z,4.78
2023-04-21T08:10:48.935Z,3.95
2023-04-21T08:13:16.216Z,5.10
2023-04-21T08:15:43.424Z,4.10
2023-04-21T08:18:10.596Z,3.92
2023-04-21T08:20:37.869Z,3.45
2023-04-21T08:23:05.295Z,4.20
2023-04-21T08:25:32.558Z,3.83
2023-04-21T08:27:59.908Z,3.75
2023-04-21T08:30:28.369Z,2.88
2023-04-21T08:32:55.626Z,3.90
2023-04-21T08:35:25.897Z,3.10
2023-04-21T08:37:54.060Z,3.00
2023-04-21T08:40:22.704Z,2.75
2023-04-21T08:42:53.366Z,3.10
2023-04-21T08:45:20.731Z,2.63
2023-04-21T08:47:49.314Z,3.22
2023-04-21T08:50:16.465Z,3.05
2023-04-21T08:52:45.871Z,2.72
2023-04-21T08:55:13.596Z,2.42
2023-04-21T09:00:11.787Z,2.88
2023-04-21T09:03:16.184Z,2.08
2023-04-21T09:06:07.808Z,2.63
2023-04-21T09:08:42.185Z,1.80
2023-04-21T09:11:14.439Z,2.00
2023-04-21T09:13:46.078Z,2.45
2023-04-21T09:16:23.924Z,1.83
2023-04-21T09:18:53.172Z,1.83
2023-04-21T09:21:32.331Z,1.52
2023-04-21T09:24:06.683Z,2.00
2023-04-21T09:26:35.184Z,2.08
2023-04-21T09:29:06.957Z,1.90
2023-04-21T09:31:36.343Z,1.83
2023-04-21T09:34:06.557Z,1.63
2023-04-21T09:36:34.015Z,2.13
2023-04-21T09:41:40.348Z,1.52
2023-04-21T09:44:10.274Z,2.05
2023-04-21T09:47:04.905Z,2.67
2023-04-21T09:49:35.887Z,1.63
2023-04-21T09:52:18.685Z,1.85
2023-04-21T09:54:54.862Z,1.63
2023-04-21T09:57:27.888Z,2.05
2023-04-21T10:00:00.150Z,2.30
2023-04-21T10:02:31.349Z,2.00
2023-04-21T10:04:58.882Z,2.08
2023-04-21T10:07:26.052Z,2.17
2023-04-21T10:09:56.664Z,1.90
2023-04-21T10:12:25.965Z,1.67
2023-04-21T10:14:54.615Z,2.10
2023-04-21T10:17:26.843Z,2.00
2023-04-21T10:19:57.371Z,1.88
2023-04-21T10:22:33.169Z,1.95
2023-04-21T10:25:03.469Z,1.77
2023-04-21T10:27:47.943Z,2.28
2023-04-21T10:30:23.302Z,1.48
2023-04-21T10:33:03.710Z,2.30
2023-04-21T10:36:08.272Z,1.80
2023-04-21T10:38:50.841Z,1.50
2023-04-21T10:41:29.426Z,2.38
2023-04-21T10:44:17.367Z,1.73
2023-04-21T10:46:58.597Z,2.05
2023-04-21T10:49:30.704Z,1.52
2023-04-21T10:52:02.620Z,1.40
2023-04-21T10:54:45.663Z,1.80
2023-04-21T10:57:18.744Z,1.73
2023-04-21T10:59:53.978Z,1.33
2023-04-21T11:02:27.733Z,1.67
2023-04-21T11:04:55.484Z,2.20
2023-04-21T11:07:24.976Z,1.48
2023-04-21T11:10:05.991Z,1.65
2023-04-21T11:12:42.468Z,1.40
2023-04-21T11:15:13.294Z,1.52
2023-04-21T11:17:47.262Z,1.52
2023-04-21T11:20:17.681Z,1.95
2023-04-21T11:22:46.639Z,1.80
2023-04-21T11:25:25.766Z,2.28
2023-04-21T11:28:00.014Z,1.80
2023-04-21T11:30:38.785Z,2.33
2023-04-21T11:33:06.250Z,1.90
2023-04-21T11:35:35.813Z,1.88
2023-04-21T11:38:06.184Z,2.13
2023-04-21T11:40:49.737Z,1.65
2023-04-21T11:43:21.301Z,1.40
2023-04-21T11:45:50.441Z,2.05
2023-04-21T11:48:19.719Z,1.83
2023-04-21T11:50:50.502Z,1.55
2023-04-21T11:53:28.076Z,1.70
2023-04-21T11:58:24.221Z,1.67
2023-04-21T12:00:57.050Z,1.50
2023-04-21T12:03:28.425Z,1.52
2023-04-21T12:05:58.364Z,1.55
2023-04-21T12:08:33.094Z,1.48
2023-04-21T12:11:02.195Z,1.40
2023-04-21T12:13:30.831Z,1.42
2023-04-21T12:16:06.573Z,1.50
2023-04-21T12:18:36.864Z,1.60
2023-04-21T12:21:04.500Z,1.20
2023-04-21T12:23:34.373Z,1.30
2023-04-21T12:26:07.456Z,1.42
2023-04-21T12:28:34.835Z,1.42
2023-04-21T12:31:02.051Z,1.35
2023-04-21T12:33:32.274Z,1.52
2023-04-21T12:36:00.159Z,1.42
2023-04-21T12:38:39.526Z,1.20
2023-04-21T12:41:12.887Z,1.33
2023-04-21T12:43:40.572Z,1.48
2023-04-21T12:46:08.766Z,1.50
2023-04-21T12:48:38.602Z,1.58
2023-04-21T12:51:06.065Z,1.48
2023-04-21T12:53:39.952Z,2.35
2023-04-21T12:56:07.188Z,1.33
2023-04-21T12:58:34.385Z,1.73
2023-04-21T13:01:02.677Z,1.40
2023-04-21T13:03:30.033Z,1.50
2023-04-21T13:06:00.537Z,1.23
2023-04-21T13:08:30.370Z,1.60
2023-04-21T13:10:58.286Z,0.95
2023-04-21T13:13:26.566Z,1.13
2023-04-21T13:15:54.254Z,1.30
2023-04-21T13:18:21.341Z,1.42
2023-04-21T13:20:57.576Z,1.40
2023-04-21T13:23:30.772Z,1.33
2023-04-21T13:26:07.061Z,2.03
2023-04-21T13:28:35.038Z,2.08
2023-04-21T13:31:03.567Z,1.90
2023-04-21T13:36:03.553Z,2.10
2023-04-21T13:38:30.890Z,2.08
2023-04-21T13:40:59.463Z,1.73
2023-04-21T13:43:28.304Z,1.88
2023-04-21T13:45:58.707Z,2.35
2023-04-21T13:48:26.805Z,1.90
2023-04-21T13:50:57.019Z,2.33
2023-04-21T13:53:25.152Z,2.55
2023-04-21T13:55:54.910Z,2.13
2023-04-21T13:58:24.527Z,3.20
2023-04-21T14:00:54.344Z,1.80
2023-04-21T14:03:24.562Z,2.25
2023-04-21T14:05:52.210Z,1.88
2023-04-21T14:08:30.050Z,2.08
2023-04-21T14:10:57.710Z,2.13
2023-04-21T14:13:37.519Z,2.78
2023-04-21T14:16:07.570Z,2.05
2023-04-21T14:18:35.031Z,1.75
2023-04-21T14:21:02.150Z,1.73
2023-04-21T14:23:32.015Z,1.80
2023-04-21T14:25:59.848Z,1.85
2023-04-21T14:30:59.733Z,2.00
2023-04-21T14:33:27.279Z,2.00
2023-04-21T14:35:54.659Z,2.60
2023-04-21T14:38:21.869Z,2.33
2023-04-21T14:40:49.889Z,2.95
2023-04-21T14:43:19.015Z,3.58
2023-04-21T14:45:49.245Z,2.47
2023-04-21T14:48:16.573Z,2.58
2023-04-21T14:50:46.894Z,3.10
2023-04-21T14:53:14.416Z,2.55
2023-04-21T14:55:51.903Z,3.10
2023-04-21T14:58:20.137Z,3.28
2023-04-21T15:00:51.067Z,2.58
2023-04-21T15:03:20.389Z,3.50
2023-04-21T15:05:50.896Z,2.47
2023-04-21T15:08:21.204Z,3.00
2023-04-21T15:10:54.021Z,3.20
2023-04-21T15:13:47.378Z,3.45
2023-04-21T15:16:23.796Z,3.72
2023-04-21T15:18:52.257Z,3.33
2023-04-21T15:21:22.873Z,3.22
2023-04-21T15:23:50.345Z,4.03
2023-04-21T15:26:21.787Z,3.35
2023-04-21T15:28:50.912Z,3.10
2023-04-21T15:31:21.327Z,3.58
2023-04-21T15:33:49.235Z,3.95
2023-04-21T15:36:17.173Z,3.00
2023-04-21T15:38:45.202Z,3.10
2023-04-21T15:41:18.634Z,4.03
2023-04-21T15:43:52.133Z,3.70
2023-04-21T15:46:27.192Z,3.78
2023-04-21T15:48:54.591Z,3.58
2023-04-21T15:51:23.233Z,4.50
2023-04-21T15:53:50.498Z,3.42
2023-04-21T15:56:17.913Z,3.72
2023-04-21T15:58:48.221Z,3.50
2023-04-21T16:01:15.991Z,4.05
2023-04-21T16:03:46.448Z,3.83
2023-04-21T16:06:15.159Z,3.42
2023-04-21T16:08:42.517Z,4.22
2023-04-21T16:11:11.082Z,3.08
2023-04-21T16:13:38.287Z,4.60
2023-04-21T16:16:06.002Z,3.85
2023-04-21T16:21:12.106Z,4.40
2023-04-21T16:23:40.350Z,4.00
2023-04-21T16:26:09.208Z,4.47
2023-04-21T16:28:38.245Z,4.20
2023-04-21T16:31:07.184Z,4.30
2023-04-21T16:33:36.492Z,4.10
2023-04-21T16:36:06.962Z,3.50
2023-04-21T16:38:37.138Z,3.63
2023-04-21T16:41:04.399Z,3.65
2023-04-21T16:43:35.061Z,3.75
2023-04-21T16:46:05.022Z,3.67
2023-04-21T16:48:35.747Z,4.05
2023-04-21T16:51:03.069Z,4.45
2023-04-21T16:53:30.399Z,3.80
2023-04-21T16:56:02.224Z,4.65
2023-04-21T16:58:34.849Z,4.75
2023-04-21T17:01:02.840Z,4.32
2023-04-21T17:03:33.528Z,3.95
2023-04-21T17:06:01.626Z,4.53
2023-04-21T17:08:28.857Z,4.28
2023-04-21T17:11:00.288Z,4.18
2023-04-21T17:13:27.897Z,3.65
2023-04-21T17:15:55.478Z,3.88
2023-04-21T17:18:22.644Z,4.22
2023-04-21T17:20:50.980Z,4.40
2023-04-21T17:23:18.390Z,3.90
2023-04-21T17:25:52.008Z,4.90
2023-04-21T17:28:19.129Z,4.47
2023-04-21T17:30:57.599Z,4.22
2023-04-21T17:33:37.013Z,4.88
2023-04-21T17:36:33.166Z,4.18
2023-04-21T17:39:01.031Z,4.03
2023-04-21T17:41:40.534Z,5.15
2023-04-21T17:44:08.251Z,4.30
2023-04-21T17:49:04.490Z,4.60
2023-04-21T17:51:41.272Z,5.03
2023-04-21T17:54:13.118Z,5.03
2023-04-21T17:56:52.122Z,4.15
2023-04-21T17:59:31.474Z,5.15
2023-04-21T18:02:00.570Z,5.68
2023-04-21T18:04:34.209Z,4.43
2023-04-21T18:07:02.306Z,6.72
2023-04-21T18:09:36.265Z,4.32
2023-04-21T18:12:04.006Z,4.85
2023-04-21T18:14:32.751Z,4.93
2023-04-21T18:17:03.128Z,4.10
2023-04-21T18:19:30.702Z,5.25
2023-04-21T18:22:05.955Z,4.68
2023-04-21T18:24:40.381Z,4.78
2023-04-21T18:27:08.093Z,4.60
2023-04-21T18:29:35.464Z,4.43
2023-04-21T18:32:08.282Z,4.50
2023-04-21T18:34:36.447Z,4.95
2023-04-21T18:37:08.408Z,5.80
2023-04-21T18:39:41.903Z,4.65
2023-04-21T18:42:12.811Z,4.60
2023-04-21T18:44:42.724Z,5.93
2023-04-21T18:47:10.051Z,5.53
2023-04-21T18:49:42.133Z,5.57
2023-04-21T18:54:54.603Z,5.13
2023-04-21T18:57:31.914Z,4.47
2023-04-21T19:00:03.821Z,5.63
2023-04-21T19:02:39.746Z,6.95
2023-04-21T19:05:07.345Z,5.97
2023-04-21T19:07:35.900Z,6.05
2023-04-21T19:10:08.450Z,5.75
2023-04-21T19:12:35.840Z,4.88
2023-04-21T19:15:14.934Z,4.65
2023-04-21T19:17:47.979Z,4.72
2023-04-21T19:20:15.954Z,5.10
2023-04-21T19:22:56.015Z,4.65
2023-04-21T19:25:25.912Z,5.30
2023-04-21T19:28:03.427Z,4.75
2023-04-21T19:30:32.620Z,4.78
2023-04-21T19:33:00.220Z,5.05
2023-04-21T19:35:32.630Z,4.38
2023-04-21T19:38:00.098Z,4.93
2023-04-21T19:40:39.068Z,5.05
2023-04-21T19:43:15.945Z,5.03
2023-04-21T19:45:53.597Z,5.00
2023-04-21T19:48:23.724Z,6.10
2023-04-21T19:50:57.937Z,4.80
2023-04-21T19:53:27.897Z,5.45
2023-04-21T19:56:14.566Z,7.07
2023-04-21T19:58:47.653Z,5.90
2023-04-21T20:01:42.501Z,4.93
2023-04-21T20:04:12.016Z,5.65
2023-04-21T20:06:40.270Z,5.25
2023-04-21T20:09:11.031Z,5.43
2023-04-21T20:11:44.168Z,5.15
2023-04-21T20:14:21.254Z,5.30
2023-04-21T20:16:48.603Z,5.95
2023-04-21T20:19:33.190Z,5.30
2023-04-21T20:22:00.366Z,5.75
2023-04-21T20:24:34.937Z,5.72
2023-04-21T20:27:02.238Z,5.20
2023-04-21T20:32:06.857Z,5.32
2023-04-21T20:34:36.220Z,4.70
2023-04-21T20:37:12.537Z,5.63
2023-04-21T20:39:39.983Z,5.47
2023-04-21T20:42:13.233Z,5.32
2023-04-21T20:44:43.209Z,5.72
2023-04-21T20:47:18.087Z,5.07
2023-04-21T20:49:50.910Z,5.65
2023-04-21T20:52:19.062Z,7.20
2023-04-21T20:54:51.294Z,5.32
2023-04-21T20:57:27.030Z,5.82
2023-04-21T20:59:54.247Z,5.85
2023-04-21T21:02:27.413Z,5.65
2023-04-21T21:04:54.613Z,5.28
2023-04-21T21:07:24.774Z,5.07
2023-04-21T21:09:54.948Z,5.00
2023-04-21T21:12:25.173Z,5.53
2023-04-21T21:14:55.596Z,5.18
2023-04-21T21:17:25.449Z,5.47
2023-04-21T21:19:53.638Z,5.25
2023-04-21T21:22:20.961Z,6.20
2023-04-21T21:24:50.540Z,5.80
2023-04-21T21:27:18.235Z,5.80
2023-04-21T21:29:49.722Z,5.60
2023-04-21T21:32:42.736Z,6.40
2023-04-21T21:35:11.897Z,5.50
2023-04-21T21:37:40.306Z,5.82
2023-04-21T21:40:08.409Z,5.50
2023-04-21T21:42:37.392Z,5.82
2023-04-21T21:45:09.753Z,6.80
2023-04-21T21:47:41.023Z,6.20
2023-04-21T21:50:14.984Z,7.22
2023-04-21T21:52:42.690Z,6.90
2023-04-21T21:55:13.508Z,6.25
2023-04-21T21:57:44.310Z,7.00
2023-04-21T22:00:16.939Z,8.07
2023-04-21T22:02:45.187Z,7.50
2023-04-21T22:05:13.849Z,6.90
2023-04-21T22:07:43.114Z,6.90
2023-04-21T22:10:12.084Z,6.57
2023-04-21T22:12:39.699Z,6.68
2023-04-21T22:15:16.765Z,7.38
2023-04-21T22:17:45.648Z,7.10
2023-04-21T22:20:13.562Z,7.13
2023-04-21T22:25:11.193Z,6.45
2023-04-21T22:27:39.672Z,6.50
2023-04-21T22:30:21.525Z,6.70
2023-04-21T22:33:24.136Z,7.07
2023-04-21T22:35:52.061Z,6.60
2023-04-21T22:38:24.421Z,5.53
2023-04-21T22:40:56.138Z,6.28
2023-04-21T22:43:24.156Z,5.93
2023-04-21T22:45:52.022Z,6.68
2023-04-21T22:48:27.193Z,5.47
2023-04-21T22:51:04.158Z,6.13
2023-04-21T22:53:31.982Z,5.68
2023-04-21T22:56:00.981Z,5.95
2023-04-21T22:58:30.468Z,6.05
2023-04-21T23:00:57.749Z,6.40
2023-04-21T23:03:27.834Z,5.70
2023-04-21T23:05:57.608Z,7.78
2023-04-21T23:08:27.771Z,6.40
2023-04-21T23:10:55.224Z,5.65
2023-04-21T23:13:22.446Z,6.82
2023-04-21T23:15:50.326Z,5.63
2023-04-21T23:18:23.412Z,5.13
2023-04-21T23:20:56.145Z,5.47
2023-04-21T23:23:27.852Z,6.03
2023-04-21T23:25:55.012Z,5.55
2023-04-21T23:30:59.659Z,5.60
2023-04-21T23:33:35.952Z,5.80
2023-04-21T23:36:06.242Z,5.82
2023-04-21T23:38:33.415Z,4.97
2023-04-21T23:41:05.784Z,5.47
2023-04-21T23:43:38.658Z,6.25
2023-04-21T23:46:06.989Z,5.07
2023-04-21T23:48:36.824Z,5.35
2023-04-21T23:51:05.062Z,5.43
2023-04-21T23:53:39.935Z,5.03
2023-04-21T23:56:12.344Z,5.13
2023-04-21T23:58:42.383Z,5.40
